Time,TemperatureF,DewpointF,PressureIn,WindDirection,WindDirectionDegrees,WindSpeedMPH,WindSpeedGustMPH,Humidity,HourlyPrecipIn,Conditions,Clouds,dailyrainin,SolarRadiationWatts/m^2,SoftwareType,DateUTC
2013-04-05 00:06:00,44.4,36.3,29.72,SSW,205,0.0,0.0,73,0.00,,,0.00,0,Wunderground v.1.15,2013-04-05 06:06:00,
2013-04-05 00:12:00,44.1,36.3,29.72,SSW,205,1.0,3.0,74,0.00,,,0.00,0,Wunderground v.1.15,2013-04-05 06:12:00,
2013-04-05 00:20:00,43.8,36.0,29.72,SSW,205,1.0,1.0,74,0.00,,,0.00,0,Wunderground v.1.15,2013-04-05 06:20:00,
2013-04-05 00:28:00,43.7,36.3,29.72,South,169,2.0,3.0,75,0.00,,,0.00,0,Wunderground v.1.15,2013-04-05 06:28:00,
2013-04-05 00:34:00,43.7,36.3,29.72,South,171,2.0,5.0,75,0.00,,,0.00,0,Wunderground v.1.15,2013-04-05 06:34:00,
2013-04-05 00:40:00,44.0,36.2,29.72,SE,132,3.0,3.0,74,0.00,,,0.00,0,Wunderground v.1.15,2013-04-05 06:40:00,
2013-04-05 00:48:00,44.3,36.2,29.72,SE,131,2.0,4.0,73,0.00,,,0.00,0,Wunderground v.1.15,2013-04-05 06:48:00,
2013-04-05 00:54:00,44.8,36.7,29.72,SE,135,4.0,11.0,73,0.00,,,0.00,0,Wunderground v.1.15,2013-04-05 06:54:00,
2013-04-05 01:02:00,45.4,36.5,29.72,SE,146,4.0,4.0,71,0.00,,,0.00,0,Wunderground v.1.15,2013-04-05 07:02:00,
2013-04-05 01:08:00,45.6,36.4,29.72,South,188,2.0,3.0,70,0.00,,,0.00,0,Wunderground v.1.15,2013-04-05 07:08:00,
2013-04-05 01:14:00,45.7,36.8,29.71,South,188,1.0,2.0,71,0.00,,,0.00,0,Wunderground v.1.15,2013-04-05 07:14:00,
2013-04-05 01:20:00,45.8,36.6,29.71,South,188,1.0,2.0,70,0.00,,,0.00,0,Wunderground v.1.15,2013-04-05 07:20:00,
2013-04-05 01:26:00,45.8,35.8,29.71,South,188,0.0,1.0,68,0.00,,,0.00,0,Wunderground v.1.15,2013-04-05 07:26:00,
2013-04-05 01:32:00,45.7,35.7,29.71,South,188,0.0,0.0,68,0.00,,,0.00,0,Wunderground v.1.15,2013-04-05 07:32:00,
2013-04-05 01:38:00,45.4,35.5,29.71,South,188,0.0,0.0,68,0.00,,,0.00,0,Wunderground v.1.15,2013-04-05 07:38:00,
2013-04-05 01:44:00,45.2,35.3,29.71,South,188,0.0,0.0,68,0.00,,,0.00,0,Wunderground v.1.15,2013-04-05 07:44:00,
2013-04-05 01:52:00,44.8,34.5,29.71,South,188,0.0,0.0,67,0.00,,,0.00,0,Wunderground v.1.15,2013-04-05 07:52:00,
2013-04-05 01:58:00,44.5,34.6,29.70,South,188,0.0,0.0,68,0.00,,,0.00,0,Wunderground v.1.15,2013-04-05 07:58:00,
2013-04-05 02:04:00,43.8,33.2,29.70,South,188,0.0,0.0,66,0.00,,,0.00,0,Wunderground v.1.15,2013-04-05 08:04:00,
2013-04-05 02:10:00,43.1,34.0,29.70,South,188,0.0,0.0,70,0.00,,,0.00,0,Wunderground v.1.15,2013-04-05 08:10:00,
2013-04-05 02:16:00,42.6,34.2,29.71,South,188,0.0,0.0,72,0.00,,,0.00,0,Wunderground v.1.15,2013-04-05 08:16:00,
2013-04-05 02:22:00,42.0,32.9,29.70,South,188,0.0,0.0,70,0.00,,,0.00,0,Wunderground v.1.15,2013-04-05 08:22:00,
2013-04-05 02:28:00,41.5,33.1,29.70,South,188,0.0,0.0,72,0.00,,,0.00,0,Wunderground v.1.15,2013-04-05 08:28:00,
2013-04-05 02:34:00,41.0,33.3,29.70,South,169,0.0,2.0,74,0.00,,,0.00,0,Wunderground v.1.15,2013-04-05 08:34:00,
2013-04-05 02:40:00,40.7,34.0,29.70,ESE,119,1.0,4.0,77,0.00,,,0.00,0,Wunderground v.1.15,2013-04-05 08:40:00,
2013-04-05 02:46:00,40.8,34.5,29.70,ESE,120,2.0,4.0,78,0.00,,,0.00,0,Wunderground v.1.15,2013-04-05 08:46:00,
2013-04-05 02:52:00,41.0,34.7,29.69,East,88,3.0,5.0,78,0.00,,,0.00,0,Wunderground v.1.15,2013-04-05 08:52:00,
2013-04-05 02:58:00,41.4,35.1,29.69,East,92,3.0,5.0,78,0.00,,,0.00,0,Wunderground v.1.15,2013-04-05 08:58:00,
2013-04-05 03:06:00,41.9,35.2,29.69,East,84,2.0,5.0,77,0.00,,,0.00,0,Wunderground v.1.15,2013-04-05 09:06:00,
2013-04-05 03:16:00,42.1,35.1,29.69,East,84,0.0,1.0,76,0.00,,,0.00,0,Wunderground v.1.15,2013-04-05 09:16:00,
2013-04-05 03:24:00,42.3,35.6,29.69,East,84,0.0,0.0,77,0.00,,,0.00,0,Wunderground v.1.15,2013-04-05 09:24:00,
2013-04-05 03:30:00,42.3,34.6,29.69,East,90,0.0,0.0,74,0.00,,,0.00,0,Wunderground v.1.15,2013-04-05 09:30:00,
2013-04-05 03:36:00,42.2,34.8,29.68,East,90,0.0,0.0,75,0.00,,,0.00,0,Wunderground v.1.15,2013-04-05 09:36:00,
2013-04-05 03:42:00,41.8,33.4,29.68,ENE,78,0.0,0.0,72,0.00,,,0.00,0,Wunderground v.1.15,2013-04-05 09:42:00,
2013-04-05 03:48:00,41.3,34.0,29.68,East,81,0.0,0.0,75,0.00,,,0.00,0,Wunderground v.1.15,2013-04-05 09:48:00,
2013-04-05 03:56:00,41.1,34.8,29.67,East,82,0.0,0.0,78,0.00,,,0.00,0,Wunderground v.1.15,2013-04-05 09:56:00,
2013-04-05 04:02:00,41.4,35.1,29.67,East,98,1.0,4.0,78,0.00,,,0.00,0,Wunderground v.1.15,2013-04-05 10:02:00,
2013-04-05 04:08:00,41.7,35.0,29.68,East,100,1.0,4.0,77,0.00,,,0.00,0,Wunderground v.1.15,2013-04-05 10:08:00,
2013-04-05 04:14:00,42.1,35.7,29.68,SE,129,1.0,1.0,78,0.00,,,0.00,0,Wunderground v.1.15,2013-04-05 10:14:00,
2013-04-05 04:20:00,42.4,35.7,29.68,SE,129,0.0,0.0,77,0.00,,,0.00,0,Wunderground v.1.15,2013-04-05 10:20:00,
2013-04-05 04:26:00,42.7,35.3,29.69,SE,129,0.0,0.0,75,0.00,,,0.00,0,Wunderground v.1.15,2013-04-05 10:26:00,
2013-04-05 04:32:00,42.9,35.9,29.69,SSW,192,1.0,5.0,76,0.00,,,0.00,0,Wunderground v.1.15,2013-04-05 10:32:00,
2013-04-05 04:38:00,43.8,36.7,29.71,SW,214,8.0,21.0,76,0.00,,,0.00,0,Wunderground v.1.15,2013-04-05 10:38:00,
2013-04-05 04:46:00,45.4,36.5,29.71,SW,217,16.0,20.0,71,0.00,,,0.00,0,Wunderground v.1.15,2013-04-05 10:46:00,
2013-04-05 04:52:00,45.8,36.2,29.72,SW,228,14.0,18.0,69,0.00,,,0.00,0,Wunderground v.1.15,2013-04-05 10:52:00,
2013-04-05 05:00:00,45.7,35.7,29.72,SSW,199,18.0,21.0,68,0.00,,,0.00,0,Wunderground v.1.15,2013-04-05 11:00:00,
2013-04-05 05:06:00,45.3,35.4,29.72,SW,223,16.0,21.0,68,0.00,,,0.00,0,Wunderground v.1.15,2013-04-05 11:06:00,
2013-04-05 05:12:00,45.1,34.4,29.72,SW,218,12.0,16.0,66,0.00,,,0.00,0,Wunderground v.1.15,2013-04-05 11:12:00,
2013-04-05 05:18:00,45.0,34.7,29.72,SSW,207,14.0,22.0,67,0.00,,,0.00,0,Wunderground v.1.15,2013-04-05 11:18:00,
2013-04-05 05:24:00,44.8,34.5,29.73,SW,219,16.0,16.0,67,0.00,,,0.00,0,Wunderground v.1.15,2013-04-05 11:24:00,
2013-04-05 05:30:00,44.5,34.6,29.74,SW,216,15.0,15.0,68,0.00,,,0.00,0,Wunderground v.1.15,2013-04-05 11:30:00,
2013-04-05 05:36:00,44.2,34.3,29.75,SW,216,13.0,15.0,68,0.00,,,0.00,0,Wunderground v.1.15,2013-04-05 11:36:00,
2013-04-05 05:42:00,44.0,34.1,29.74,SSW,209,10.0,11.0,68,0.00,,,0.00,0,Wunderground v.1.15,2013-04-05 11:42:00,
2013-04-05 05:48:00,43.9,34.0,29.74,SW,214,7.0,11.0,68,0.00,,,0.00,0,Wunderground v.1.15,2013-04-05 11:48:00,
2013-04-05 05:54:00,43.8,34.3,29.74,SSW,192,7.0,10.0,69,0.00,,,0.00,0,Wunderground v.1.15,2013-04-05 11:54:00,
2013-04-05 06:00:00,43.6,34.1,29.73,SSW,211,7.0,7.0,69,0.00,,,0.00,0,Wunderground v.1.15,2013-04-05 12:00:00,
2013-04-05 06:08:00,43.4,34.3,29.73,SSW,192,4.0,7.0,70,0.00,,,0.00,0,Wunderground v.1.15,2013-04-05 12:08:00,
2013-04-05 06:14:00,43.3,33.8,29.72,SSW,192,5.0,13.0,69,0.00,,,0.00,0,Wunderground v.1.15,2013-04-05 12:14:00,
2013-04-05 06:20:00,43.3,33.8,29.72,South,178,9.0,9.0,69,0.00,,,0.00,0,Wunderground v.1.15,2013-04-05 12:20:00,
2013-04-05 06:26:00,43.3,33.8,29.72,South,171,9.0,11.0,69,0.00,,,0.00,0,Wunderground v.1.15,2013-04-05 12:26:00,
2013-04-05 06:34:00,43.3,33.4,29.72,SSW,203,9.0,9.0,68,0.00,,,0.00,0,Wunderground v.1.15,2013-04-05 12:34:00,
2013-04-05 06:42:00,43.4,33.5,29.72,SSW,193,9.0,9.0,68,0.00,,,0.00,0,Wunderground v.1.15,2013-04-05 12:42:00,
2013-04-05 06:48:00,43.4,33.2,29.72,South,190,9.0,13.0,67,0.00,,,0.00,0,Wunderground v.1.15,2013-04-05 12:48:00,
2013-04-05 06:56:00,43.5,32.9,29.71,SW,217,11.0,12.0,66,0.00,,,0.00,0,Wunderground v.1.15,2013-04-05 12:56:00,
2013-04-05 07:02:00,43.6,32.6,29.71,SSW,207,10.0,14.0,65,0.00,,,0.00,0,Wunderground v.1.15,2013-04-05 13:02:00,
2013-04-05 07:10:00,43.6,33.0,29.72,SSW,194,7.0,7.0,66,0.00,,,0.00,0,Wunderground v.1.15,2013-04-05 13:10:00,
2013-04-05 07:16:00,43.5,32.5,29.72,SSW,213,5.0,10.0,65,0.00,,,0.00,5,Wunderground v.1.15,2013-04-05 13:16:00,
2013-04-05 07:22:00,43.4,32.8,29.72,WSW,238,6.0,6.0,66,0.00,,,0.00,7,Wunderground v.1.15,2013-04-05 13:22:00,
2013-04-05 07:28:00,43.2,32.6,29.72,WSW,239,4.0,6.0,66,0.00,,,0.00,9,Wunderground v.1.15,2013-04-05 13:28:00,
2013-04-05 07:34:00,43.0,32.8,29.71,WSW,238,2.0,4.0,67,0.00,,,0.00,14,Wunderground v.1.15,2013-04-05 13:34:00,
2013-04-05 07:40:00,42.7,32.5,29.71,WSW,238,2.0,3.0,67,0.00,,,0.00,21,Wunderground v.1.15,2013-04-05 13:40:00,
2013-04-05 07:46:00,42.4,32.6,29.71,SSW,196,3.0,5.0,68,0.00,,,0.00,32,Wunderground v.1.15,2013-04-05 13:46:00,
2013-04-05 07:52:00,42.2,33.5,29.71,SSW,192,4.0,5.0,71,0.00,,,0.00,47,Wunderground v.1.15,2013-04-05 13:52:00,
2013-04-05 08:00:00,42.1,33.7,29.72,SSW,192,4.0,6.0,72,0.00,,,0.00,54,Wunderground v.1.15,2013-04-05 14:00:00,
2013-04-05 08:06:00,42.1,33.4,29.72,SSW,192,2.0,6.0,71,0.00,,,0.00,72,Wunderground v.1.15,2013-04-05 14:06:00,
2013-04-05 08:12:00,42.1,33.4,29.72,SSW,192,0.0,1.0,71,0.00,,,0.00,91,Wunderground v.1.15,2013-04-05 14:12:00,
2013-04-05 08:18:00,42.2,33.1,29.72,SSW,192,0.0,1.0,70,0.00,,,0.00,74,Wunderground v.1.15,2013-04-05 14:18:00,
2013-04-05 08:24:00,42.4,33.3,29.72,SSW,192,0.0,0.0,70,0.00,,,0.00,62,Wunderground v.1.15,2013-04-05 14:24:00,
2013-04-05 08:30:00,42.5,33.4,29.71,SSW,192,0.0,0.0,70,0.00,,,0.00,63,Wunderground v.1.15,2013-04-05 14:30:00,
2013-04-05 08:38:00,42.7,33.2,29.71,SSW,192,1.0,1.0,69,0.00,,,0.00,74,Wunderground v.1.15,2013-04-05 14:38:00,
2013-04-05 08:44:00,42.7,33.2,29.72,SSW,192,1.0,2.0,69,0.00,,,0.00,72,Wunderground v.1.15,2013-04-05 14:44:00,
2013-04-05 08:52:00,42.8,33.3,29.72,SSW,192,1.0,1.0,69,0.00,,,0.00,118,Wunderground v.1.15,2013-04-05 14:52:00,
2013-04-05 08:58:00,42.9,33.4,29.73,SSW,192,0.0,1.0,69,0.00,,,0.00,151,Wunderground v.1.15,2013-04-05 14:58:00,
2013-04-05 09:04:00,43.1,33.6,29.73,SSW,192,0.0,0.0,69,0.00,,,0.00,139,Wunderground v.1.15,2013-04-05 15:04:00,
2013-04-05 09:10:00,43.3,33.4,29.73,East,89,1.0,2.0,68,0.00,,,0.00,172,Wunderground v.1.15,2013-04-05 15:10:00,
2013-04-05 09:16:00,43.7,33.5,29.72,East,89,1.0,3.0,67,0.00,,,0.00,255,Wunderground v.1.15,2013-04-05 15:16:00,
2013-04-05 09:22:00,44.3,34.8,29.72,East,90,1.0,4.0,69,0.00,,,0.00,309,Wunderground v.1.15,2013-04-05 15:22:00,
2013-04-05 09:28:00,45.1,34.4,29.72,East,98,2.0,5.0,66,0.00,,,0.00,299,Wunderground v.1.15,2013-04-05 15:28:00,
2013-04-05 09:34:00,45.9,34.0,29.71,SSE,155,3.0,5.0,63,0.00,,,0.00,378,Wunderground v.1.15,2013-04-05 15:34:00,
2013-04-05 09:40:00,46.6,33.9,29.71,SSW,202,2.0,4.0,61,0.00,,,0.00,390,Wunderground v.1.15,2013-04-05 15:40:00,
2013-04-05 09:46:00,47.4,33.8,29.71,SSE,168,4.0,4.0,59,0.00,,,0.00,520,Wunderground v.1.15,2013-04-05 15:46:00,
2013-04-05 09:52:00,48.4,33.9,29.71,SSE,150,6.0,12.0,57,0.00,,,0.00,552,Wunderground v.1.15,2013-04-05 15:52:00,
2013-04-05 09:58:00,49.1,34.1,29.71,South,186,6.0,12.0,56,0.00,,,0.00,519,Wunderground v.1.15,2013-04-05 15:58:00,
2013-04-05 10:04:00,49.6,33.6,29.71,SSE,147,6.0,7.0,54,0.00,,,0.00,338,Wunderground v.1.15,2013-04-05 16:04:00,
2013-04-05 10:10:00,49.6,33.6,29.71,SE,126,5.0,7.0,54,0.00,,,0.00,531,Wunderground v.1.15,2013-04-05 16:10:00,
2013-04-05 10:16:00,49.8,33.3,29.71,East,88,5.0,7.0,53,0.00,,,0.00,707,Wunderground v.1.15,2013-04-05 16:16:00,
2013-04-05 10:22:00,50.2,33.7,29.70,SSE,158,5.0,8.0,53,0.00,,,0.00,448,Wunderground v.1.15,2013-04-05 16:22:00,
2013-04-05 10:28:00,50.5,34.0,29.70,SSE,158,5.0,8.0,53,0.00,,,0.00,700,Wunderground v.1.15,2013-04-05 16:28:00,
2013-04-05 10:36:00,51.5,34.4,29.70,East,101,5.0,11.0,52,0.00,,,0.00,529,Wunderground v.1.15,2013-04-05 16:36:00,
2013-04-05 10:42:00,52.4,34.3,29.71,SSE,165,6.0,6.0,50,0.00,,,0.00,666,Wunderground v.1.15,2013-04-05 16:42:00,
2013-04-05 10:48:00,53.1,33.9,29.70,SSE,148,6.0,7.0,48,0.00,,,0.00,524,Wunderground v.1.15,2013-04-05 16:48:00,
2013-04-05 10:56:00,52.9,33.7,29.71,East,80,5.0,6.0,48,0.00,,,0.00,332,Wunderground v.1.15,2013-04-05 16:56:00,
2013-04-05 11:02:00,52.2,33.6,29.71,SE,129,5.0,9.0,49,0.00,,,0.00,359,Wunderground v.1.15,2013-04-05 17:02:00,
2013-04-05 11:08:00,51.8,34.2,29.71,SSE,158,6.0,9.0,51,0.00,,,0.00,487,Wunderground v.1.15,2013-04-05 17:08:00,
2013-04-05 11:14:00,51.9,33.8,29.71,SSE,155,7.0,11.0,50,0.00,,,0.00,427,Wunderground v.1.15,2013-04-05 17:14:00,
2013-04-05 11:20:00,52.0,33.4,29.72,SE,143,7.0,9.0,49,0.00,,,0.00,362,Wunderground v.1.15,2013-04-05 17:20:00,
2013-04-05 11:26:00,51.9,32.8,29.71,SSE,150,7.0,10.0,48,0.00,,,0.00,355,Wunderground v.1.15,2013-04-05 17:26:00,
2013-04-05 11:32:00,51.6,33.6,29.71,South,169,7.0,7.0,50,0.00,,,0.00,348,Wunderground v.1.15,2013-04-05 17:32:00,
2013-04-05 11:38:00,51.5,33.0,29.71,SSE,165,7.0,7.0,49,0.00,,,0.00,410,Wunderground v.1.15,2013-04-05 17:38:00,
2013-04-05 11:44:00,51.3,33.3,29.71,SE,146,9.0,13.0,50,0.00,,,0.00,343,Wunderground v.1.15,2013-04-05 17:44:00,
2013-04-05 11:50:00,51.1,33.6,29.72,SSE,152,9.0,9.0,51,0.00,,,0.00,258,Wunderground v.1.15,2013-04-05 17:50:00,
2013-04-05 11:56:00,50.9,33.4,29.71,SE,140,7.0,12.0,51,0.00,,,0.00,265,Wunderground v.1.15,2013-04-05 17:56:00,
2013-04-05 12:02:00,50.7,33.7,29.71,SSE,160,7.0,10.0,52,0.00,,,0.00,281,Wunderground v.1.15,2013-04-05 18:02:00,
2013-04-05 12:08:00,50.6,33.6,29.71,East,95,7.0,11.0,52,0.00,,,0.00,283,Wunderground v.1.15,2013-04-05 18:08:00,
2013-04-05 12:16:00,50.2,33.2,29.71,ENE,76,8.0,9.0,52,0.00,,,0.00,415,Wunderground v.1.15,2013-04-05 18:16:00,
2013-04-05 12:22:00,50.2,33.2,29.70,East,90,8.0,11.0,52,0.00,,,0.00,304,Wunderground v.1.15,2013-04-05 18:22:00,
2013-04-05 12:28:00,50.2,33.7,29.70,East,88,9.0,11.0,53,0.00,,,0.00,547,Wunderground v.1.15,2013-04-05 18:28:00,
2013-04-05 12:34:00,50.4,33.9,29.70,East,90,10.0,10.0,53,0.00,,,0.00,622,Wunderground v.1.15,2013-04-05 18:34:00,
2013-04-05 12:40:00,50.9,33.9,29.70,SE,141,9.0,9.0,52,0.00,,,0.00,624,Wunderground v.1.15,2013-04-05 18:40:00,
2013-04-05 12:46:00,51.2,34.2,29.70,ESE,104,8.0,11.0,52,0.00,,,0.00,587,Wunderground v.1.15,2013-04-05 18:46:00,
2013-04-05 12:52:00,51.5,33.5,29.70,South,173,8.0,8.0,50,0.00,,,0.00,343,Wunderground v.1.15,2013-04-05 18:52:00,
2013-04-05 12:58:00,51.9,33.3,29.69,ESE,107,7.0,10.0,49,0.00,,,0.00,311,Wunderground v.1.15,2013-04-05 18:58:00,
2013-04-05 13:04:00,52.3,33.7,29.69,SSE,156,7.0,7.0,49,0.00,,,0.00,728,Wunderground v.1.15,2013-04-05 19:04:00,
2013-04-05 13:10:00,53.3,34.1,29.70,SE,136,7.0,7.0,48,0.00,,,0.00,937,Wunderground v.1.15,2013-04-05 19:10:00,
2013-04-05 13:16:00,54.4,33.5,29.69,SSW,200,6.0,9.0,45,0.00,,,0.00,316,Wunderground v.1.15,2013-04-05 19:16:00,
2013-04-05 13:22:00,54.1,31.5,29.69,SSW,194,10.0,20.0,42,0.00,,,0.00,371,Wunderground v.1.15,2013-04-05 19:22:00,
2013-04-05 13:28:00,53.1,30.6,29.70,South,188,14.0,20.0,42,0.00,,,0.00,431,Wunderground v.1.15,2013-04-05 19:28:00,
2013-04-05 13:34:00,52.9,30.4,29.69,SW,225,13.0,22.0,42,0.00,,,0.00,802,Wunderground v.1.15,2013-04-05 19:34:00,
2013-04-05 13:40:00,52.5,30.6,29.70,SSW,199,14.0,16.0,43,0.00,,,0.00,373,Wunderground v.1.15,2013-04-05 19:40:00,
2013-04-05 13:46:00,52.4,30.0,29.69,SW,228,11.0,16.0,42,0.00,,,0.00,362,Wunderground v.1.15,2013-04-05 19:46:00,
2013-04-05 13:54:00,52.9,31.0,29.69,SSW,209,11.0,20.0,43,0.00,,,0.00,861,Wunderground v.1.15,2013-04-05 19:54:00,
2013-04-05 14:00:00,53.9,30.1,29.69,SSW,192,12.0,22.0,40,0.00,,,0.00,341,Wunderground v.1.15,2013-04-05 20:00:00,
2013-04-05 14:06:00,53.6,29.8,29.69,SW,231,14.0,22.0,40,0.00,,,0.00,323,Wunderground v.1.15,2013-04-05 20:06:00,
2013-04-05 14:12:00,52.9,29.8,29.69,SSW,196,14.0,15.0,41,0.00,,,0.00,285,Wunderground v.1.15,2013-04-05 20:12:00,
2013-04-05 14:18:00,52.5,29.5,29.68,South,181,11.0,15.0,41,0.00,,,0.00,290,Wunderground v.1.15,2013-04-05 20:18:00,
2013-04-05 14:26:00,52.5,29.5,29.68,SSW,197,10.0,11.0,41,0.00,,,0.00,287,Wunderground v.1.15,2013-04-05 20:26:00,
2013-04-05 14:32:00,52.6,29.5,29.69,South,189,12.0,15.0,41,0.00,,,0.00,468,Wunderground v.1.15,2013-04-05 20:32:00,
2013-04-05 14:38:00,52.8,28.5,29.68,South,191,14.0,19.0,39,0.00,,,0.00,255,Wunderground v.1.15,2013-04-05 20:38:00,
2013-04-05 14:44:00,52.9,28.6,29.68,SW,217,15.0,16.0,39,0.00,,,0.00,947,Wunderground v.1.15,2013-04-05 20:44:00,
2013-04-05 14:50:00,53.7,29.3,29.68,SSW,212,14.0,15.0,39,0.00,,,0.00,1013,Wunderground v.1.15,2013-04-05 20:50:00,
2013-04-05 14:58:00,55.5,29.0,29.68,SSW,213,14.0,15.0,36,0.00,,,0.00,972,Wunderground v.1.15,2013-04-05 20:58:00,
2013-04-05 15:04:00,56.3,28.3,29.68,SW,219,14.0,17.0,34,0.00,,,0.00,895,Wunderground v.1.15,2013-04-05 21:04:00,
2013-04-05 15:12:00,56.8,28.7,29.69,SSE,162,13.0,13.0,34,0.00,,,0.00,759,Wunderground v.1.15,2013-04-05 21:12:00,
2013-04-05 15:18:00,57.3,27.7,29.69,SSE,162,13.0,19.0,32,0.00,,,0.00,812,Wunderground v.1.15,2013-04-05 21:18:00,
2013-04-05 15:28:00,57.5,27.8,29.69,SSW,196,14.0,14.0,32,0.00,,,0.00,803,Wunderground v.1.15,2013-04-05 21:28:00,
2013-04-05 15:34:00,57.6,27.9,29.69,SSW,212,13.0,19.0,32,0.00,,,0.00,888,Wunderground v.1.15,2013-04-05 21:34:00,
2013-04-05 15:40:00,57.7,27.2,29.69,SW,222,14.0,16.0,31,0.00,,,0.00,858,Wunderground v.1.15,2013-04-05 21:40:00,
2013-04-05 15:48:00,57.5,27.1,29.69,SSW,197,15.0,18.0,31,0.00,,,0.00,868,Wunderground v.1.15,2013-04-05 21:48:00,
2013-04-05 15:54:00,57.6,27.2,29.69,SSW,204,14.0,15.0,31,0.00,,,0.00,854,Wunderground v.1.15,2013-04-05 21:54:00,
2013-04-05 16:00:00,57.5,27.1,29.69,SSW,197,16.0,16.0,31,0.00,,,0.00,802,Wunderground v.1.15,2013-04-05 22:00:00,
2013-04-05 16:06:00,57.4,27.0,29.69,SW,228,16.0,16.0,31,0.00,,,0.00,765,Wunderground v.1.15,2013-04-05 22:06:00,
2013-04-05 16:12:00,56.9,26.5,29.69,South,190,17.0,23.0,31,0.00,,,0.00,738,Wunderground v.1.15,2013-04-05 22:12:00,
2013-04-05 16:22:00,56.7,25.6,29.69,South,188,15.0,20.0,30,0.00,,,0.00,712,Wunderground v.1.15,2013-04-05 22:22:00,
2013-04-05 16:28:00,56.7,25.6,29.69,SW,214,17.0,20.0,30,0.00,,,0.00,707,Wunderground v.1.15,2013-04-05 22:28:00,
2013-04-05 16:34:00,57.0,25.8,29.69,South,169,14.0,21.0,30,0.00,,,0.00,694,Wunderground v.1.15,2013-04-05 22:34:00,
2013-04-05 16:40:00,57.0,25.8,29.70,SSE,168,16.0,19.0,30,0.00,,,0.00,677,Wunderground v.1.15,2013-04-05 22:40:00,
2013-04-05 16:46:00,56.7,25.6,29.69,South,185,19.0,20.0,30,0.00,,,0.00,661,Wunderground v.1.15,2013-04-05 22:46:00,
2013-04-05 16:52:00,56.7,26.4,29.70,SSW,192,17.0,22.0,31,0.00,,,0.00,649,Wunderground v.1.15,2013-04-05 22:52:00,
2013-04-05 16:58:00,56.8,26.5,29.70,SSW,200,16.0,22.0,31,0.00,,,0.00,647,Wunderground v.1.15,2013-04-05 22:58:00,
2013-04-05 17:04:00,56.7,26.4,29.70,SSW,195,15.0,17.0,31,0.00,,,0.00,645,Wunderground v.1.15,2013-04-05 23:04:00,
2013-04-05 17:10:00,56.7,27.1,29.70,South,190,15.0,15.0,32,0.00,,,0.00,621,Wunderground v.1.15,2013-04-05 23:10:00,
2013-04-05 17:18:00,56.7,27.1,29.71,South,170,15.0,16.0,32,0.00,,,0.00,220,Wunderground v.1.15,2013-04-05 23:18:00,
2013-04-05 17:24:00,55.6,26.9,29.71,South,189,14.0,14.0,33,0.00,,,0.00,178,Wunderground v.1.15,2013-04-05 23:24:00,
2013-04-05 17:30:00,54.3,27.2,29.72,SSW,197,15.0,25.0,35,0.00,,,0.00,223,Wunderground v.1.15,2013-04-05 23:30:00,
2013-04-05 17:36:00,53.7,27.4,29.72,South,182,17.0,25.0,36,0.00,,,0.00,176,Wunderground v.1.15,2013-04-05 23:36:00,
2013-04-05 17:42:00,53.9,27.5,29.72,South,178,15.0,16.0,36,0.00,,,0.00,538,Wunderground v.1.15,2013-04-05 23:42:00,
2013-04-05 17:48:00,54.2,28.5,29.72,South,178,13.0,16.0,37,0.00,,,0.00,432,Wunderground v.1.15,2013-04-05 23:48:00,
2013-04-05 17:54:00,53.9,28.8,29.73,South,181,15.0,18.0,38,0.00,,,0.00,192,Wunderground v.1.15,2013-04-05 23:54:00,
2013-04-05 18:02:00,53.6,29.8,29.74,South,188,16.0,17.0,40,0.00,,,0.00,121,Wunderground v.1.15,2013-04-06 00:02:00,
2013-04-05 18:08:00,53.2,29.5,29.74,South,178,17.0,21.0,40,0.00,,,0.00,431,Wunderground v.1.15,2013-04-06 00:08:00,
2013-04-05 18:14:00,52.3,29.3,29.74,South,182,16.0,18.0,41,0.00,,,0.00,100,Wunderground v.1.15,2013-04-06 00:14:00,
2013-04-05 18:24:00,50.7,30.1,29.74,SSW,203,15.0,15.0,45,0.00,,,0.00,185,Wunderground v.1.15,2013-04-06 00:24:00,
2013-04-05 18:30:00,50.3,29.7,29.75,SSW,194,16.0,16.0,45,0.00,,,0.00,83,Wunderground v.1.15,2013-04-06 00:30:00,
2013-04-05 18:36:00,49.7,29.7,29.75,SSW,197,17.0,17.0,46,0.00,,,0.00,79,Wunderground v.1.15,2013-04-06 00:36:00,
2013-04-05 18:42:00,49.2,29.8,29.75,SSW,205,15.0,16.0,47,0.00,,,0.00,104,Wunderground v.1.15,2013-04-06 00:42:00,
2013-04-05 18:48:00,49.1,30.2,29.75,South,180,13.0,16.0,48,0.00,,,0.00,121,Wunderground v.1.15,2013-04-06 00:48:00,
2013-04-05 18:54:00,49.1,29.7,29.75,SSE,166,12.0,13.0,47,0.00,,,0.00,107,Wunderground v.1.15,2013-04-06 00:54:00,
2013-04-05 19:00:00,49.2,30.3,29.76,South,180,12.0,12.0,48,0.00,,,0.00,105,Wunderground v.1.15,2013-04-06 01:00:00,
2013-04-05 19:06:00,49.1,30.2,29.76,South,187,11.0,13.0,48,0.00,,,0.00,113,Wunderground v.1.15,2013-04-06 01:06:00,
2013-04-05 19:12:00,49.0,30.1,29.77,SSW,200,13.0,15.0,48,0.00,,,0.00,98,Wunderground v.1.15,2013-04-06 01:12:00,
2013-04-05 19:18:00,48.7,30.4,29.77,South,188,12.0,15.0,49,0.00,,,0.00,74,Wunderground v.1.15,2013-04-06 01:18:00,
2013-04-05 19:24:00,48.6,30.8,29.77,South,180,13.0,15.0,50,0.00,,,0.00,40,Wunderground v.1.15,2013-04-06 01:24:00,
2013-04-05 19:30:00,48.1,30.8,29.77,SSW,193,12.0,16.0,51,0.00,,,0.00,51,Wunderground v.1.15,2013-04-06 01:30:00,
2013-04-05 19:36:00,47.8,31.0,29.77,SSW,202,13.0,16.0,52,0.00,,,0.00,47,Wunderground v.1.15,2013-04-06 01:36:00,
2013-04-05 19:42:00,47.5,31.2,29.77,South,186,11.0,13.0,53,0.00,,,0.00,35,Wunderground v.1.15,2013-04-06 01:42:00,
2013-04-05 19:48:00,47.2,31.4,29.77,South,187,10.0,13.0,54,0.00,,,0.00,25,Wunderground v.1.15,2013-04-06 01:48:00,
2013-04-05 19:54:00,46.9,31.1,29.78,South,184,12.0,13.0,54,0.00,,,0.00,12,Wunderground v.1.15,2013-04-06 01:54:00,
2013-04-05 20:00:00,46.5,31.2,29.78,SSW,211,12.0,12.0,55,0.00,,,0.00,7,Wunderground v.1.15,2013-04-06 02:00:00,
2013-04-05 20:06:00,46.1,31.3,29.78,SSW,195,9.0,12.0,56,0.00,,,0.00,5,Wunderground v.1.15,2013-04-06 02:06:00,
2013-04-05 20:12:00,45.7,31.3,29.78,South,179,7.0,8.0,57,0.00,,,0.00,0,Wunderground v.1.15,2013-04-06 02:12:00,
2013-04-05 20:18:00,45.5,31.1,29.78,South,190,8.0,12.0,57,0.00,,,0.00,0,Wunderground v.1.15,2013-04-06 02:18:00,
2013-04-05 20:24:00,45.4,30.6,29.78,South,186,9.0,9.0,56,0.00,,,0.00,0,Wunderground v.1.15,2013-04-06 02:24:00,
2013-04-05 20:30:00,45.5,30.3,29.78,South,179,9.0,9.0,55,0.00,,,0.00,0,Wunderground v.1.15,2013-04-06 02:30:00,
2013-04-05 20:36:00,45.6,30.3,29.79,South,178,10.0,11.0,55,0.00,,,0.00,0,Wunderground v.1.15,2013-04-06 02:36:00,
2013-04-05 20:44:00,45.7,30.9,29.79,South,188,7.0,8.0,56,0.00,,,0.00,0,Wunderground v.1.15,2013-04-06 02:44:00,
2013-04-05 20:50:00,45.7,30.9,29.79,SSW,202,8.0,8.0,56,0.00,,,0.00,0,Wunderground v.1.15,2013-04-06 02:50:00,
2013-04-05 20:56:00,45.6,30.3,29.79,SSW,205,8.0,8.0,55,0.00,,,0.00,0,Wunderground v.1.15,2013-04-06 02:56:00,
2013-04-05 21:02:00,45.6,30.3,29.79,SSW,209,8.0,8.0,55,0.00,,,0.00,0,Wunderground v.1.15,2013-04-06 03:02:00,
2013-04-05 21:08:00,45.6,30.3,29.80,SSW,193,8.0,13.0,55,0.00,,,0.00,0,Wunderground v.1.15,2013-04-06 03:08:00,
2013-04-05 21:14:00,45.6,30.8,29.80,South,184,9.0,12.0,56,0.00,,,0.00,0,Wunderground v.1.15,2013-04-06 03:14:00,
2013-04-05 21:20:00,45.2,31.7,29.80,South,171,10.0,10.0,59,0.00,,,0.00,0,Wunderground v.1.15,2013-04-06 03:20:00,
2013-04-05 21:26:00,45.0,31.9,29.81,South,171,9.0,12.0,60,0.00,,,0.00,0,Wunderground v.1.15,2013-04-06 03:26:00,
2013-04-05 21:32:00,44.9,31.8,29.81,SSW,193,9.0,9.0,60,0.00,,,0.00,0,Wunderground v.1.15,2013-04-06 03:32:00,
2013-04-05 21:40:00,44.7,32.1,29.82,SSE,165,6.0,6.0,61,0.00,,,0.00,0,Wunderground v.1.15,2013-04-06 03:40:00,
2013-04-05 21:46:00,44.6,31.6,29.82,SSE,165,2.0,6.0,60,0.00,,,0.00,0,Wunderground v.1.15,2013-04-06 03:46:00,
2013-04-05 21:52:00,44.5,31.5,29.82,SSE,165,0.0,0.0,60,0.00,,,0.00,0,Wunderground v.1.15,2013-04-06 03:52:00,
2013-04-05 21:58:00,44.3,31.3,29.82,SSE,165,0.0,0.0,60,0.00,,,0.00,0,Wunderground v.1.15,2013-04-06 03:58:00,
2013-04-05 22:00:00,44.2,31.2,29.83,SSE,165,0.0,0.0,60,0.00,,,0.00,0,Wunderground v.1.15,2013-04-06 04:00:00,
2013-04-05 22:02:00,44.2,31.2,29.82,SSE,165,0.0,0.0,60,0.00,,,0.00,0,Wunderground v.1.15,2013-04-06 04:02:00,
2013-04-05 22:04:00,44.1,31.1,29.83,SSE,165,0.0,0.0,60,0.00,,,0.00,0,Wunderground v.1.15,2013-04-06 04:04:00,
2013-04-05 22:06:00,44.0,31.0,29.83,SSE,165,0.0,0.0,60,0.00,,,0.00,0,Wunderground v.1.15,2013-04-06 04:06:00,
2013-04-05 22:12:00,43.7,31.1,29.83,SSE,165,0.0,0.0,61,0.00,,,0.00,0,Wunderground v.1.15,2013-04-06 04:12:00,
2013-04-05 22:20:00,43.1,30.6,29.83,SSE,165,0.0,0.0,61,0.00,,,0.00,0,Wunderground v.1.15,2013-04-06 04:20:00,
2013-04-05 22:26:00,42.4,29.9,29.83,SSE,165,0.0,0.0,61,0.00,,,0.00,0,Wunderground v.1.15,2013-04-06 04:26:00,
2013-04-05 22:32:00,42.1,30.0,29.83,SSE,165,0.0,0.0,62,0.00,,,0.00,0,Wunderground v.1.15,2013-04-06 04:32:00,
2013-04-05 22:38:00,41.8,30.1,29.83,SSE,165,0.0,0.0,63,0.00,,,0.00,0,Wunderground v.1.15,2013-04-06 04:38:00,
2013-04-05 22:46:00,41.4,30.9,29.83,SSE,165,0.0,0.0,66,0.00,,,0.00,0,Wunderground v.1.15,2013-04-06 04:46:00,
2013-04-05 22:52:00,41.3,30.4,29.83,SSE,165,0.0,3.0,65,0.00,,,0.00,0,Wunderground v.1.15,2013-04-06 04:52:00,
2013-04-05 22:58:00,41.0,31.2,29.83,ESE,117,2.0,3.0,68,0.00,,,0.00,0,Wunderground v.1.15,2013-04-06 04:58:00,
2013-04-05 23:06:00,40.7,30.2,29.83,ESE,113,1.0,3.0,66,0.00,,,0.00,0,Wunderground v.1.15,2013-04-06 05:06:00,
2013-04-05 23:14:00,40.5,30.4,29.82,ESE,113,0.0,0.0,67,0.00,,,0.00,0,Wunderground v.1.15,2013-04-06 05:14:00,
2013-04-05 23:20:00,40.3,30.9,29.83,ESE,112,0.0,0.0,69,0.00,,,0.00,0,Wunderground v.1.15,2013-04-06 05:20:00,
2013-04-05 23:28:00,40.2,31.2,29.83,ESE,113,0.0,0.0,70,0.00,,,0.00,0,Wunderground v.1.15,2013-04-06 05:28:00,
2013-04-05 23:34:00,40.2,31.2,29.83,ESE,112,0.0,0.0,70,0.00,,,0.00,0,Wunderground v.1.15,2013-04-06 05:34:00,
2013-04-05 23:40:00,40.4,31.4,29.83,ESE,112,0.0,0.0,70,0.00,,,0.00,0,Wunderground v.1.15,2013-04-06 05:40:00,
2013-04-05 23:46:00,40.5,31.1,29.83,ESE,113,0.0,0.0,69,0.00,,,0.00,0,Wunderground v.1.15,2013-04-06 05:46:00,
2013-04-05 23:52:00,40.7,31.3,29.83,ESE,113,0.0,0.0,69,0.00,,,0.00,0,Wunderground v.1.15,2013-04-06 05:52:00,
2013-04-05 23:58:00,40.7,31.3,29.83,ESE,112,0.0,0.0,69,0.00,,,0.00,0,Wunderground v.1.15,2013-04-06 05:58:00,